Time;durP1;ratioP1;P1;durP2;ratioP2;P2;SDS_P1;SDS_P2;PMS_P1;PMS_P2;Temp;Humidity;BMP_temperature;BMP_pressure;BME280_temperature;BME280_humidity;BME280_pressure;Samples;Min_cycle;Max_cycle;Signal;HPM_P1;HPM_P2
2022/08/08 00:00:18;;;;;;;8.13;2.95;;;15.80;99.90;;;;;;5053821;28;20032;-71
2022/08/08 00:03:00;;;;;;;5.50;2.38;;;15.60;99.90;;;;;;5036873;28;20727;-71
2022/08/08 00:05:43;;;;;;;3.83;2.78;;;15.70;99.90;;;;;;5053359;28;20048;-71
2022/08/08 00:08:32;;;;;;;5.28;2.90;;;15.50;99.90;;;;;;5071293;28;20566;-71
2022/08/08 00:11:20;;;;;;;6.80;2.38;;;15.60;99.90;;;;;;5071585;28;20089;-71
2022/08/08 00:14:14;;;;;;;4.30;2.60;;;15.50;99.90;;;;;;5053472;28;20409;-71
2022/08/08 00:16:48;;;;;;;3.15;2.28;;;15.40;99.90;;;;;;5071166;28;20422;-71
2022/08/08 00:19:44;;;;;;;3.83;2.08;;;15.50;99.90;;;;;;5036795;28;20041;-71
2022/08/08 00:22:36;;;;;;;3.88;2.25;;;15.40;99.90;;;;;;5053301;28;20132;-71
2022/08/08 00:25:06;;;;;;;5.43;2.42;;;15.40;99.90;;;;;;5028800;28;20091;-71
2022/08/08 00:27:34;;;;;;;4.68;2.70;;;15.50;99.90;;;;;;5057347;28;20037;-71
2022/08/08 00:30:08;;;;;;;4.30;2.33;;;15.50;99.90;;;;;;5075132;28;20060;-71
2022/08/08 00:32:44;;;;;;;5.05;2.60;;;15.40;99.90;;;;;;5074849;28;20494;-71
2022/08/08 00:35:28;;;;;;;3.40;2.40;;;15.30;99.90;;;;;;5056555;28;20060;-71
2022/08/08 00:38:13;;;;;;;5.78;3.35;;;15.40;99.90;;;;;;5074881;28;20033;-71
2022/08/08 00:41:04;;;;;;;5.20;2.63;;;15.30;99.90;;;;;;5074862;28;20121;-71
2022/08/08 00:43:48;;;;;;;5.13;2.22;;;15.10;99.90;;;;;;5040481;28;20047;-71
2022/08/08 00:46:38;;;;;;;3.80;2.58;;;15.30;99.90;;;;;;5056901;28;20111;-70
2022/08/08 00:49:54;;;;;;;5.10;2.65;;;15.40;99.90;;;;;;5056842;28;20055;-71
2022/08/08 00:52:31;;;;;;;3.70;2.50;;;15.20;99.90;;;;;;5056899;28;20052;-71
2022/08/08 00:55:26;;;;;;;5.00;2.53;;;15.30;99.90;;;;;;5056105;28;20036;-71
2022/08/08 00:58:10;;;;;;;4.22;2.45;;;15.10;99.90;;;;;;5056723;28;20071;-71
2022/08/08 01:00:49;;;;;;;4.97;2.33;;;15.10;99.90;;;;;;5056586;28;20037;-71
2022/08/08 01:03:17;;;;;;;4.80;2.70;;;15.00;99.90;;;;;;5074717;28;20117;-70
2022/08/08 01:06:22;;;;;;;4.43;2.67;;;15.20;99.90;;;;;;5056461;28;20045;-71
2022/08/08 01:09:31;;;;;;;4.18;2.67;;;15.10;99.90;;;;;;5057029;28;20139;-71
2022/08/08 01:12:27;;;;;;;5.60;3.33;;;15.20;99.90;;;;;;5040171;28;20036;-71
2022/08/08 01:15:12;;;;;;;4.25;2.80;;;15.20;99.90;;;;;;5073668;28;20062;-71
2022/08/08 01:17:57;;;;;;;5.07;2.83;;;15.30;99.90;;;;;;5056617;28;20076;-71
2022/08/08 01:20:33;;;;;;;6.82;3.15;;;15.30;99.90;;;;;;5074178;28;20051;-71
2022/08/08 01:23:45;;;;;;;4.28;3.22;;;15.20;99.90;;;;;;5056221;28;20043;-71
2022/08/08 01:26:20;;;;;;;3.83;3.08;;;15.20;99.90;;;;;;5056118;28;20444;-71
2022/08/08 01:29:10;;;;;;;4.28;3.15;;;16.20;99.90;;;;;;5074119;28;20174;-71
2022/08/08 01:31:45;;;;;;;4.95;2.85;;;15.10;99.90;;;;;;5056091;28;20426;-71
2022/08/08 01:34:28;;;;;;;6.32;3.65;;;15.10;99.90;;;;;;5073503;28;20154;-71
2022/08/08 01:37:14;;;;;;;4.68;2.95;;;15.10;99.90;;;;;;5038187;28;20127;-71
2022/08/08 01:39:58;;;;;;;4.70;2.88;;;15.20;99.90;;;;;;5055702;28;20494;-71
2022/08/08 01:42:36;;;;;;;3.65;2.95;;;15.00;99.90;;;;;;5055928;28;20064;-71
2022/08/08 01:45:20;;;;;;;5.78;3.15;;;15.10;99.90;;;;;;5073298;28;20123;-71
2022/08/08 01:48:19;;;;;;;4.00;3.10;;;15.20;99.90;;;;;;5055649;28;20045;-71
2022/08/08 01:51:15;;;;;;;5.30;2.97;;;15.00;99.90;;;;;;5073634;28;20052;-71
2022/08/08 01:53:47;;;;;;;4.25;2.78;;;15.00;99.90;;;;;;5038684;28;20040;-71
2022/08/08 01:56:55;;;;;;;3.40;2.80;;;15.00;99.90;;;;;;5073197;28;20032;-71
2022/08/08 01:59:34;;;;;;;3.75;2.33;;;15.00;99.90;;;;;;5073414;28;20041;-71
2022/08/08 02:02:53;;;;;;;6.05;2.47;;;14.90;99.90;;;;;;5073291;28;20559;-71
2022/08/08 02:05:49;;;;;;;3.95;2.40;;;15.00;99.90;;;;;;5026960;28;20406;-71
2022/08/08 02:08:37;;;;;;;4.00;2.80;;;15.10;99.90;;;;;;5073301;28;20047;-71
2022/08/08 02:11:35;;;;;;;4.20;2.70;;;15.00;99.90;;;;;;5055192;28;20044;-71
2022/08/08 02:14:24;;;;;;;4.32;2.78;;;14.80;99.90;;;;;;5054785;28;20040;-71
2022/08/08 02:17:14;;;;;;;4.00;2.70;;;14.90;99.90;;;;;;5055284;28;20453;-71
2022/08/08 02:20:10;;;;;;;5.07;3.08;;;14.70;99.90;;;;;;5072877;28;20040;-71
2022/08/08 02:22:46;;;;;;;4.80;3.35;;;14.80;99.90;;;;;;5054976;28;20045;-71
2022/08/08 02:25:37;;;;;;;5.75;2.92;;;15.00;99.90;;;;;;5054612;28;20040;-71
2022/08/08 02:28:32;;;;;;;5.72;3.03;;;14.70;99.90;;;;;;5072059;28;20052;-71
2022/08/08 02:31:11;;;;;;;4.97;2.95;;;14.60;99.90;;;;;;5072712;28;20101;-71
2022/08/08 02:33:47;;;;;;;8.65;3.35;;;14.60;99.90;;;;;;5054829;28;20090;-70
2022/08/08 02:36:36;;;;;;;4.55;2.65;;;14.60;99.90;;;;;;5054367;28;20043;-71
2022/08/08 02:39:50;;;;;;;3.75;2.90;;;14.50;99.90;;;;;;5072683;28;20311;-71
2022/08/08 02:42:34;;;;;;;3.65;2.95;;;14.60;99.90;;;;;;5041195;28;20044;-71
2022/08/08 02:45:12;;;;;;;5.10;3.40;;;14.50;99.90;;;;;;5054111;28;20049;-70
2022/08/08 02:47:47;;;;;;;5.22;2.78;;;14.50;99.90;;;;;;5054244;28;20047;-71
2022/08/08 02:50:55;;;;;;;3.10;2.80;;;14.40;99.90;;;;;;5054418;28;20075;-71
2022/08/08 02:54:03;;;;;;;5.22;3.13;;;14.30;99.90;;;;;;5026408;28;20094;-71
2022/08/08 02:57:12;;;;;;;4.38;3.70;;;14.50;99.90;;;;;;5054168;28;20498;-71
2022/08/08 03:00:16;;;;;;;4.43;3.80;;;14.30;99.90;;;;;;5072252;28;20045;-71
2022/08/08 03:03:19;;;;;;;4.47;3.05;;;14.40;99.90;;;;;;5054470;28;20071;-71
2022/08/08 03:06:04;;;;;;;5.18;3.53;;;14.40;99.90;;;;;;5053807;28;20457;-71
2022/08/08 03:09:23;;;;;;;4.88;3.75;;;14.50;99.90;;;;;;5054049;28;20044;-71
2022/08/08 03:12:10;;;;;;;4.13;3.72;;;14.50;99.90;;;;;;5054006;28;20073;-71
2022/08/08 03:15:20;;;;;;;4.35;3.92;;;14.50;99.90;;;;;;5053404;28;20091;-70
2022/08/08 03:17:57;;;;;;;9.25;4.43;;;14.60;99.90;;;;;;5053843;28;20041;-71
2022/08/08 03:20:23;;;;;;;4.88;3.78;;;14.70;99.90;;;;;;5054137;28;20040;-72
2022/08/08 03:22:51;;;;;;;4.43;3.63;;;14.70;99.90;;;;;;5054248;28;20094;-71
2022/08/08 03:25:19;;;;;;;5.07;4.07;;;14.60;99.90;;;;;;5036814;28;20422;-71
2022/08/08 03:27:56;;;;;;;5.55;3.80;;;14.70;99.90;;;;;;5037405;28;20055;-71
2022/08/08 03:30:22;;;;;;;9.60;4.40;;;14.60;99.90;;;;;;5053861;28;20044;-71
2022/08/08 03:35:38;;;;;;;5.95;4.18;;;14.70;99.90;;;;;;5069690;28;20536;-71
2022/08/08 03:38:03;;;;;;;6.25;4.03;;;14.80;99.90;;;;;;5054232;28;20036;-71
2022/08/08 03:40:29;;;;;;;5.55;4.38;;;14.80;99.90;;;;;;5071787;28;20489;-71
2022/08/08 03:42:55;;;;;;;7.43;4.15;;;14.90;99.90;;;;;;5071987;28;20449;-70
2022/08/08 03:45:22;;;;;;;8.52;4.20;;;14.90;99.90;;;;;;5053283;28;20409;-71
2022/08/08 03:47:58;;;;;;;5.93;4.13;;;15.50;99.90;;;;;;5053631;28;20058;-71
2022/08/08 03:50:25;;;;;;;7.90;4.13;;;15.00;99.90;;;;;;5071792;28;20045;-71
2022/08/08 03:52:52;;;;;;;5.45;3.92;;;15.10;99.90;;;;;;5053563;28;20494;-71
2022/08/08 03:55:19;;;;;;;7.80;4.80;;;15.10;99.90;;;;;;5071371;28;20081;-71
2022/08/08 03:57:55;;;;;;;8.65;4.32;;;14.90;99.90;;;;;;5071651;28;20051;-71
2022/08/08 04:00:23;;;;;;;7.00;3.83;;;15.20;99.90;;;;;;5075374;28;20036;-71
2022/08/08 04:03:00;;;;;;;5.78;4.70;;;15.20;99.90;;;;;;5075556;28;20071;-71
2022/08/08 04:05:31;;;;;;;5.07;4.25;;;15.10;99.90;;;;;;5057106;28;20039;-70
2022/08/08 04:07:59;;;;;;;9.20;4.70;;;15.10;99.90;;;;;;5075345;28;20086;-70
2022/08/08 04:10:25;;;;;;;6.38;4.72;;;15.10;99.90;;;;;;5075526;28;20041;-71
2022/08/08 04:12:53;;;;;;;8.93;4.43;;;15.00;99.90;;;;;;5057311;28;20127;-71
2022/08/08 04:15:18;;;;;;;8.63;5.00;;;15.20;99.90;;;;;;5057010;28;20085;-71
2022/08/08 04:17:44;;;;;;;5.53;4.30;;;15.20;99.90;;;;;;5058145;28;20515;-71
2022/08/08 04:20:09;;;;;;;9.32;4.65;;;15.10;99.90;;;;;;5058814;28;20077;-71
2022/08/08 04:22:35;;;;;;;6.75;4.80;;;15.10;99.90;;;;;;5075026;28;20410;-71
2022/08/08 04:25:01;;;;;;;7.53;4.20;;;15.60;99.90;;;;;;5040181;28;20036;-71
2022/08/08 04:27:27;;;;;;;10.77;5.07;;;16.60;99.90;;;;;;5057112;28;20498;-71
2022/08/08 04:29:52;;;;;;;7.88;4.43;;;15.10;99.90;;;;;;5074992;28;20032;-71
2022/08/08 04:32:18;;;;;;;8.95;4.28;;;15.70;99.90;;;;;;5074887;28;20402;-71
2022/08/08 04:34:44;;;;;;;8.55;4.88;;;15.30;99.90;;;;;;5056700;28;20123;-71
2022/08/08 04:37:10;;;;;;;6.82;4.20;;;15.30;99.90;;;;;;5056976;28;20037;-71
2022/08/08 04:39:36;;;;;;;8.95;4.82;;;15.20;99.90;;;;;;5057211;28;20036;-71
2022/08/08 04:42:01;;;;;;;6.28;4.68;;;15.40;99.90;;;;;;5074803;28;20110;-70
2022/08/08 04:44:27;;;;;;;10.88;5.32;;;15.20;99.90;;;;;;5056577;28;20419;-70
2022/08/08 04:46:53;;;;;;;7.25;5.05;;;15.50;99.90;;;;;;5075036;28;20115;-71
2022/08/08 04:49:19;;;;;;;9.00;5.50;;;15.40;99.90;;;;;;5039985;28;20048;-71
2022/08/08 04:51:44;;;;;;;9.63;5.00;;;15.10;99.90;;;;;;5074641;28;20028;-71
2022/08/08 04:54:10;;;;;;;7.20;5.30;;;15.60;99.90;;;;;;5074401;28;20043;-70
2022/08/08 04:56:35;;;;;;;8.13;4.78;;;15.50;99.90;;;;;;5074892;28;20074;-71
2022/08/08 04:59:01;;;;;;;9.23;5.00;;;15.50;99.90;;;;;;5057030;28;20086;-71
2022/08/08 05:01:27;;;;;;;8.90;5.68;;;15.70;99.90;;;;;;5074617;28;20300;-71
2022/08/08 05:03:52;;;;;;;11.55;6.55;;;15.40;99.90;;;;;;5056050;28;20040;-71
2022/08/08 05:06:18;;;;;;;7.85;5.10;;;15.60;99.90;;;;;;5056267;28;20102;-71
2022/08/08 05:08:44;;;;;;;11.43;5.07;;;15.50;99.90;;;;;;5056772;28;20135;-71
2022/08/08 05:11:13;;;;;;;6.50;5.15;;;15.50;99.90;;;;;;5054810;28;20498;-71
2022/08/08 05:13:39;;;;;;;7.78;5.45;;;15.50;99.90;;;;;;5056396;28;20391;-71
2022/08/08 05:16:05;;;;;;;10.27;5.05;;;15.50;99.90;;;;;;5096607;22;20060;-70
2022/08/08 05:18:32;;;;;;;10.85;6.03;;;15.60;99.90;;;;;;5056407;28;20044;-70
2022/08/08 05:20:58;;;;;;;7.53;5.15;;;15.50;99.90;;;;;;5056415;28;20045;-70
2022/08/08 05:23:24;;;;;;;9.40;5.75;;;15.20;99.90;;;;;;5074222;28;20033;-70
2022/08/08 05:25:50;;;;;;;12.00;6.93;;;15.50;99.90;;;;;;5061099;28;20101;-71
2022/08/08 05:28:16;;;;;;;8.25;4.80;;;15.50;99.90;;;;;;5054374;28;20491;-70
2022/08/08 05:30:42;;;;;;;10.10;5.63;;;15.50;99.90;;;;;;5054410;28;20394;-70
2022/08/08 05:33:08;;;;;;;8.25;6.03;;;16.30;99.90;;;;;;5035937;28;20066;-70
2022/08/08 05:35:34;;;;;;;11.32;5.20;;;15.70;99.90;;;;;;5053527;28;20068;-70
2022/08/08 05:38:03;;;;;;;9.00;5.70;;;16.50;99.90;;;;;;5019890;28;20037;-69
2022/08/08 05:40:30;;;;;;;7.80;5.53;;;15.80;99.90;;;;;;5054102;28;20112;-70
2022/08/08 05:43:03;;;;;;;10.82;6.05;;;15.70;99.90;;;;;;5053916;28;20029;-70
2022/08/08 05:45:34;;;;;;;9.35;6.28;;;15.80;99.90;;;;;;5053353;28;20103;-71
2022/08/08 05:48:00;;;;;;;7.45;5.13;;;16.00;99.90;;;;;;5053525;28;20049;-70
2022/08/08 05:50:28;;;;;;;10.48;5.47;;;16.40;99.90;;;;;;5040997;28;20422;-70
2022/08/08 05:52:54;;;;;;;9.68;5.00;;;16.80;99.90;;;;;;5049313;28;20116;-69
2022/08/08 05:55:20;;;;;;;12.48;5.15;;;16.20;99.90;;;;;;5031671;28;20075;-70
2022/08/08 05:57:49;;;;;;;9.68;5.40;;;16.20;99.90;;;;;;5049620;28;20124;-70
2022/08/08 06:00:15;;;;;;;11.52;5.55;;;16.30;99.90;;;;;;5031620;28;20078;-70
2022/08/08 06:05:31;;;;;;;8.15;5.13;;;16.30;99.90;;;;;;5031229;28;20132;-70
2022/08/08 06:07:58;;;;;;;9.20;4.65;;;16.50;99.90;;;;;;5031665;28;20055;-70
2022/08/08 06:10:29;;;;;;;7.85;4.53;;;16.60;99.90;;;;;;5049581;28;20132;-70
2022/08/08 06:12:55;;;;;;;9.15;4.40;;;16.70;99.90;;;;;;5041584;28;20099;-70
2022/08/08 06:15:21;;;;;;;10.57;4.97;;;16.90;99.90;;;;;;5048958;28;20033;-70
2022/08/08 06:17:48;;;;;;;9.38;4.80;;;16.90;99.90;;;;;;5031742;28;20067;-70
2022/08/08 06:20:14;;;;;;;8.75;4.60;;;17.10;99.90;;;;;;5028595;28;20041;-70
2022/08/08 06:22:40;;;;;;;11.63;5.18;;;17.10;99.90;;;;;;5034741;28;20038;-71
2022/08/08 06:25:07;;;;;;;6.70;4.28;;;17.40;99.90;;;;;;5044975;28;20119;-70
2022/08/08 06:27:36;;;;;;;9.60;5.10;;;17.20;99.90;;;;;;5053384;28;20044;-71
2022/08/08 06:30:05;;;;;;;7.28;4.65;;;17.70;99.90;;;;;;5038001;28;20089;-71
2022/08/08 06:32:31;;;;;;;6.97;3.75;;;17.60;99.90;;;;;;5077291;28;20418;-70
2022/08/08 06:35:03;;;;;;;6.97;4.45;;;17.60;99.90;;;;;;5072112;28;20029;-70
2022/08/08 06:37:34;;;;;;;5.85;4.38;;;17.70;99.90;;;;;;5072511;28;20496;-70
2022/08/08 06:40:05;;;;;;;6.70;3.28;;;17.80;99.90;;;;;;5038030;28;20517;-71
2022/08/08 06:42:36;;;;;;;4.00;2.35;;;17.90;99.90;;;;;;5072523;28;20047;-71
2022/08/08 06:45:06;;;;;;;11.70;4.10;;;18.20;99.90;;;;;;5049619;28;20036;-71
2022/08/08 06:47:34;;;;;;;9.68;3.28;;;18.20;99.90;;;;;;5017584;28;20517;-70
2022/08/08 06:50:00;;;;;;;5.50;2.60;;;18.30;99.90;;;;;;5045633;28;20036;-71
2022/08/08 06:52:26;;;;;;;8.85;2.90;;;18.40;99.90;;;;;;5031899;28;20538;-71
2022/08/08 06:54:54;;;;;;;5.10;2.90;;;18.60;99.90;;;;;;5029772;28;20044;-70
2022/08/08 06:57:23;;;;;;;5.80;3.45;;;18.60;99.90;;;;;;5050863;28;20414;-70
2022/08/08 06:59:50;;;;;;;6.15;2.42;;;18.60;99.90;;;;;;5029171;28;20060;-70
2022/08/08 07:02:23;;;;;;;4.45;1.77;;;18.80;99.90;;;;;;5030610;28;20037;-70
2022/08/08 07:05:15;;;;;;;;;;;18.90;99.90;;;;;;5049394;28;20033;-71
2022/08/08 07:08:02;;;;;;;9.10;2.78;;;18.80;99.90;;;;;;5015068;28;19916;-71
2022/08/08 07:10:34;;;;;;;5.55;2.47;;;19.00;99.90;;;;;;5024619;28;20087;-71
2022/08/08 07:13:08;;;;;;;3.70;1.52;;;19.10;99.90;;;;;;5017179;28;20050;-71
2022/08/08 07:15:43;;;;;;;5.40;1.40;;;19.10;99.90;;;;;;5030402;28;20033;-71
2022/08/08 07:18:09;;;;;;;4.10;1.38;;;19.60;99.90;;;;;;5029812;28;20094;-71
2022/08/08 07:20:43;;;;;;;3.50;1.40;;;19.50;99.90;;;;;;5061760;28;20033;-71
2022/08/08 07:23:31;;;;;;;4.95;1.60;;;19.50;99.90;;;;;;5050225;28;20112;-70
2022/08/08 07:26:01;;;;;;;4.40;1.98;;;19.30;99.90;;;;;;5061893;28;20045;-71
2022/08/08 07:28:28;;;;;;;6.57;1.45;;;19.30;99.90;;;;;;5054925;28;20128;-71
2022/08/08 07:30:54;;;;;;;4.28;1.58;;;19.40;99.90;;;;;;5064140;28;20432;-71
2022/08/08 07:33:23;;;;;;;2.38;1.27;;;20.10;99.90;;;;;;5052205;28;20123;-70
2022/08/08 07:35:49;;;;;;;3.33;1.13;;;19.50;99.90;;;;;;5053049;28;20025;-71
2022/08/08 07:38:19;;;;;;;1.52;1.00;;;19.40;99.90;;;;;;5033307;28;20040;-70
2022/08/08 07:40:45;;;;;;;3.17;1.25;;;20.10;99.90;;;;;;5057817;28;20036;-71
2022/08/08 07:43:12;;;;;;;4.43;1.23;;;19.90;99.90;;;;;;5071483;28;20060;-70
2022/08/08 07:45:39;;;;;;;6.28;1.95;;;20.20;99.90;;;;;;5055016;28;20045;-70
2022/08/08 07:48:05;;;;;;;8.77;1.60;;;20.50;99.90;;;;;;5056070;28;20055;-70
2022/08/08 07:50:32;;;;;;;5.75;1.10;;;20.80;99.90;;;;;;5032412;28;20044;-70
2022/08/08 07:53:20;;;;;;;4.70;1.20;;;20.50;99.90;;;;;;5034319;28;20044;-70
2022/08/08 07:55:50;;;;;;;2.28;1.40;;;20.50;99.90;;;;;;5036895;28;20523;-70
2022/08/08 07:58:20;;;;;;;5.28;1.40;;;20.70;99.90;;;;;;5050489;28;20717;-71
2022/08/08 08:00:52;;;;;;;3.53;1.50;;;20.70;99.90;;;;;;5032599;28;20128;-71
2022/08/08 08:03:31;;;;;;;4.50;2.15;;;20.70;99.90;;;;;;5049614;28;20083;-71
2022/08/08 08:05:58;;;;;;;5.80;1.33;;;20.50;99.90;;;;;;5051112;28;20116;-71
2022/08/08 08:08:38;;;;;;;1.92;1.27;;;20.40;99.90;;;;;;5032895;28;20040;-71
2022/08/08 08:11:11;;;;;;;3.35;1.23;;;20.30;99.90;;;;;;5049330;28;20116;-71
2022/08/08 08:13:46;;;;;;;2.33;1.00;;;20.70;99.90;;;;;;5049742;28;20506;-70
2022/08/08 08:16:20;;;;;;;3.22;1.23;;;20.40;99.90;;;;;;5029147;28;20041;-71
2022/08/08 08:19:02;;;;;;;4.28;1.08;;;20.50;99.90;;;;;;5040497;28;20071;-70
2022/08/08 08:21:30;;;;;;;3.08;1.20;;;20.10;99.90;;;;;;5017183;28;20127;-71
2022/08/08 08:23:55;;;;;;;3.25;0.75;;;20.10;99.90;;;;;;5049636;28;20571;-71
2022/08/08 08:26:21;;;;;;;1.42;0.82;;;19.70;99.90;;;;;;5039354;28;20053;-71
2022/08/08 08:28:47;;;;;;;3.25;1.40;;;19.70;99.90;;;;;;5047652;28;20059;-71
2022/08/08 08:31:13;;;;;;;4.88;1.50;;;19.60;99.90;;;;;;5032499;28;20063;-71
2022/08/08 08:33:39;;;;;;;5.43;1.40;;;19.90;99.90;;;;;;5027972;28;20051;-71
2022/08/08 08:36:08;;;;;;;3.72;1.10;;;19.70;99.90;;;;;;5028801;28;20037;-71
2022/08/08 08:38:34;;;;;;;6.13;1.25;;;19.60;99.90;;;;;;5030300;28;20069;-71
2022/08/08 08:41:01;;;;;;;4.75;1.38;;;20.10;99.90;;;;;;5032222;28;20037;-71
2022/08/08 08:43:27;;;;;;;3.22;1.25;;;19.70;99.90;;;;;;5016301;28;20040;-71
2022/08/08 08:45:57;;;;;;;5.70;1.63;;;20.00;99.90;;;;;;5034777;28;20128;-71
2022/08/08 08:48:23;;;;;;;3.70;1.52;;;20.00;99.90;;;;;;5016570;28;20045;-71
2022/08/08 08:50:51;;;;;;;3.38;1.00;;;19.70;99.90;;;;;;5016912;28;20045;-71
2022/08/08 08:53:17;;;;;;;2.80;1.10;;;19.60;99.90;;;;;;5041675;28;20068;-71
2022/08/08 08:55:44;;;;;;;4.18;1.05;;;19.90;99.90;;;;;;5054852;28;20032;-71
2022/08/08 08:58:46;;;;;;;3.35;1.08;;;19.80;99.90;;;;;;5055173;28;20079;-70
2022/08/08 09:01:15;;;;;;;2.38;1.15;;;20.10;99.90;;;;;;5053223;28;20490;-71
2022/08/08 09:03:44;;;;;;;4.78;1.20;;;20.00;99.90;;;;;;5034970;28;20475;-70
2022/08/08 09:06:24;;;;;;;2.88;1.25;;;20.00;99.90;;;;;;5036488;28;20518;-70
2022/08/08 09:08:57;;;;;;;2.67;1.02;;;20.10;99.90;;;;;;5022174;28;20542;-70
2022/08/08 09:11:23;;;;;;;2.95;0.98;;;19.40;99.90;;;;;;5052331;28;20060;-69
2022/08/08 09:13:51;;;;;;;2.60;0.90;;;20.30;99.90;;;;;;5035789;28;20090;-70
2022/08/08 09:16:17;;;;;;;2.67;1.00;;;19.50;99.90;;;;;;5035418;28;20090;-70
2022/08/08 09:18:43;;;;;;;2.90;1.13;;;20.20;99.90;;;;;;5053054;28;20136;-70
2022/08/08 09:21:10;;;;;;;3.08;1.13;;;20.20;99.90;;;;;;5053386;28;20033;-70
2022/08/08 09:23:36;;;;;;;2.67;1.00;;;21.30;99.90;;;;;;5062948;28;20036;-70
2022/08/08 09:26:12;;;;;;;5.13;1.55;;;20.00;99.90;;;;;;5052623;28;20094;-70
2022/08/08 09:28:39;;;;;;;2.45;1.25;;;19.90;99.90;;;;;;5035407;28;20114;-71
2022/08/08 09:31:11;;;;;;;6.20;1.20;;;20.10;99.90;;;;;;5035344;28;20051;-70
2022/08/08 09:33:40;;;;;;;5.32;1.20;;;19.90;99.90;;;;;;5053797;28;20294;-71
2022/08/08 09:36:09;;;;;;;2.75;1.23;;;20.00;99.90;;;;;;5052298;28;20130;-71
2022/08/08 09:38:50;;;;;;;4.65;1.30;;;20.80;99.90;;;;;;5036010;28;20387;-71
2022/08/08 09:41:22;;;;;;;4.50;1.60;;;20.20;99.90;;;;;;5038611;28;20040;-71
2022/08/08 09:43:49;;;;;;;2.20;1.45;;;20.00;99.90;;;;;;5035402;28;20043;-71
2022/08/08 09:46:16;;;;;;;3.03;1.20;;;20.10;99.90;;;;;;5054202;28;20046;-71
2022/08/08 09:48:44;;;;;;;5.00;1.30;;;20.10;99.90;;;;;;5053207;28;20384;-71
2022/08/08 09:51:17;;;;;;;4.40;1.30;;;20.10;99.90;;;;;;5019074;28;20044;-71
2022/08/08 09:53:53;;;;;;;3.20;1.00;;;20.00;99.90;;;;;;5055511;28;20087;-71
2022/08/08 09:56:20;;;;;;;2.80;1.33;;;20.20;99.90;;;;;;5052012;28;20045;-71
2022/08/08 09:59:01;;;;;;;3.15;1.23;;;20.20;99.90;;;;;;5052549;28;20045;-71
2022/08/08 10:01:31;;;;;;;3.65;1.40;;;20.10;99.90;;;;;;5018379;28;20033;-71
2022/08/08 10:03:57;;;;;;;4.07;1.55;;;20.00;99.90;;;;;;5034587;28;20160;-71
2022/08/08 10:06:23;;;;;;;4.65;1.50;;;20.60;99.90;;;;;;5016974;28;20479;-71
2022/08/08 10:08:50;;;;;;;5.85;1.85;;;20.40;99.90;;;;;;5034989;28;20048;-71
2022/08/08 10:11:17;;;;;;;3.10;1.67;;;20.10;99.90;;;;;;5034281;28;20041;-71
2022/08/08 10:13:52;;;;;;;6.03;2.00;;;20.00;99.90;;;;;;5034188;28;20041;-70
2022/08/08 10:16:18;;;;;;;2.78;1.65;;;19.80;99.90;;;;;;5034484;28;20037;-71
2022/08/08 10:18:44;;;;;;;4.13;1.92;;;19.80;99.90;;;;;;5052287;28;20037;-71
2022/08/08 10:21:11;;;;;;;3.42;1.50;;;19.80;99.90;;;;;;5034185;28;20414;-71
2022/08/08 10:23:43;;;;;;;3.25;1.52;;;20.00;99.90;;;;;;5034449;28;20045;-71
2022/08/08 10:26:21;;;;;;;3.28;1.83;;;19.80;99.90;;;;;;5051450;28;20052;-70
2022/08/08 10:29:09;;;;;;;3.78;2.13;;;19.90;99.90;;;;;;5034743;28;20049;-71
2022/08/08 10:34:25;;;;;;;5.63;2.10;;;19.80;99.90;;;;;;5032103;28;20106;-71
2022/08/08 10:36:52;;;;;;;8.02;2.25;;;19.70;99.90;;;;;;5033931;28;20065;-71
2022/08/08 10:39:23;;;;;;;4.38;1.70;;;19.80;99.90;;;;;;5016851;28;20449;-71
2022/08/08 10:42:03;;;;;;;8.38;2.13;;;19.70;99.90;;;;;;5033635;28;20057;-71
2022/08/08 10:44:37;;;;;;;7.85;1.90;;;19.90;99.90;;;;;;5051545;28;20040;-71
2022/08/08 10:47:10;;;;;;;4.70;1.80;;;20.00;99.90;;;;;;5034682;28;20427;-71
2022/08/08 10:49:36;;;;;;;4.90;1.73;;;20.10;99.90;;;;;;5053138;28;20033;-71
2022/08/08 10:52:03;;;;;;;4.75;1.77;;;20.20;99.90;;;;;;5052012;28;20429;-71
2022/08/08 10:54:28;;;;;;;3.97;1.90;;;20.20;99.90;;;;;;5033457;28;20470;-72
2022/08/08 10:57:06;;;;;;;3.45;2.03;;;20.20;99.90;;;;;;5055111;28;20064;-71
2022/08/08 10:59:32;;;;;;;4.03;1.80;;;20.10;99.90;;;;;;5029744;28;20040;-70
2022/08/08 11:01:58;;;;;;;5.47;2.55;;;20.00;99.90;;;;;;5048069;28;20149;-69
2022/08/08 11:04:24;;;;;;;3.95;1.83;;;20.40;99.90;;;;;;5045296;28;20037;-70
2022/08/08 11:06:58;;;;;;;2.55;1.60;;;21.00;99.90;;;;;;5022117;28;20461;-70
2022/08/08 11:09:24;;;;;;;4.95;1.95;;;19.30;99.90;;;;;;5029222;28;20518;-70
2022/08/08 11:11:52;;;;;;;4.00;1.75;;;20.70;99.90;;;;;;5024008;28;20124;-70
2022/08/08 11:14:17;;;;;;;3.22;1.73;;;20.90;99.90;;;;;;5011749;28;20099;-70
2022/08/08 11:16:45;;;;;;;3.25;1.73;;;21.20;99.90;;;;;;5056801;22;20597;-70
2022/08/08 11:19:11;;;;;;;6.18;2.33;;;21.10;99.90;;;;;;5015919;28;20604;-70
2022/08/08 11:21:44;;;;;;;6.50;2.13;;;21.80;99.90;;;;;;5036328;28;20128;-71
2022/08/08 11:24:11;;;;;;;9.18;1.77;;;21.20;99.90;;;;;;5019666;28;20119;-70
2022/08/08 11:26:41;;;;;;;4.82;1.58;;;21.20;99.90;;;;;;5017676;28;20041;-71
2022/08/08 11:29:08;;;;;;;4.72;1.95;;;21.30;99.90;;;;;;5031109;28;20057;-72
2022/08/08 11:32:01;;;;;;;3.63;1.70;;;21.60;99.90;;;;;;5016344;28;20042;-72
2022/08/08 11:34:31;;;;;;;7.15;2.20;;;21.80;99.90;;;;;;4990822;28;20153;-71
2022/08/08 11:36:58;;;;;;;7.45;2.08;;;22.70;99.90;;;;;;4993514;28;20042;-70
2022/08/08 11:39:25;;;;;;;3.72;1.83;;;22.70;99.90;;;;;;4993612;28;20042;-71
2022/08/08 11:41:51;;;;;;;4.70;1.73;;;22.10;99.90;;;;;;4994657;28;20094;-70
2022/08/08 11:44:19;;;;;;;3.75;1.60;;;22.30;99.90;;;;;;4993483;28;20734;-71
2022/08/08 11:46:44;;;;;;;4.28;1.83;;;21.90;99.90;;;;;;4993089;28;20074;-71
2022/08/08 11:49:11;;;;;;;2.97;1.30;;;22.20;99.90;;;;;;5010407;28;20099;-71
2022/08/08 11:51:37;;;;;;;2.15;1.52;;;22.00;99.90;;;;;;4993505;28;20096;-71
2022/08/08 11:54:04;;;;;;;6.30;1.45;;;22.50;99.90;;;;;;5031699;28;20117;-71
2022/08/08 11:56:34;;;;;;;5.28;1.42;;;21.70;99.90;;;;;;5023090;28;20037;-71
2022/08/08 11:59:08;;;;;;;4.47;1.20;;;21.70;99.90;;;;;;5009445;28;20030;-71
2022/08/08 12:01:33;;;;;;;3.60;1.42;;;22.10;99.90;;;;;;4991466;28;20037;-73
2022/08/08 12:04:01;;;;;;;3.70;1.20;;;21.80;99.90;;;;;;5030904;28;20091;-70
2022/08/08 12:06:26;;;;;;;8.32;1.95;;;21.70;99.90;;;;;;5012317;28;20564;-71
2022/08/08 12:08:52;;;;;;;6.93;2.67;;;21.70;99.90;;;;;;5012952;28;20128;-71
2022/08/08 12:11:18;;;;;;;3.30;1.73;;;21.40;99.90;;;;;;5030613;28;20068;-73
2022/08/08 12:13:49;;;;;;;3.60;1.63;;;21.90;99.90;;;;;;5030920;28;20491;-73
2022/08/08 12:16:17;;;;;;;4.32;1.30;;;22.30;99.90;;;;;;5030915;28;20053;-73
2022/08/08 12:18:47;;;;;;;5.38;1.38;;;21.80;99.90;;;;;;5030411;28;20495;-71
2022/08/08 12:21:30;;;;;;;8.18;1.42;;;24.00;99.90;;;;;;5016688;28;20499;-71
2022/08/08 12:24:05;;;;;;;;;;;21.70;99.90;;;;;;5016505;28;20040;-70
2022/08/08 12:26:45;;;;;;;3.90;1.45;;;21.60;99.90;;;;;;5000381;28;19916;-71
2022/08/08 12:29:34;;;;;;;3.35;1.33;;;21.50;99.90;;;;;;5006214;28;20046;-70
2022/08/08 12:32:03;;;;;;;3.38;1.58;;;21.70;99.90;;;;;;5029646;28;20406;-72
2022/08/08 12:34:44;;;;;;;2.55;1.48;;;22.70;99.90;;;;;;5036107;28;20047;-71
2022/08/08 12:37:17;;;;;;;6.43;1.40;;;22.10;99.90;;;;;;5025783;28;20132;-72
2022/08/08 12:39:43;;;;;;;3.15;1.20;;;22.60;99.90;;;;;;5016344;28;20045;-72
2022/08/08 12:42:09;;;;;;;3.05;1.40;;;22.90;99.90;;;;;;5016321;28;20048;-71
2022/08/08 12:44:35;;;;;;;6.38;1.85;;;23.30;99.90;;;;;;5016687;28;20376;-72
2022/08/08 12:47:04;;;;;;;5.38;1.55;;;23.30;99.90;;;;;;5033857;28;20036;-72
2022/08/08 12:49:32;;;;;;;5.57;1.40;;;22.80;99.90;;;;;;5033001;28;20037;-72
2022/08/08 12:51:58;;;;;;;4.82;1.45;;;22.50;99.90;;;;;;5034181;28;20419;-72
2022/08/08 12:54:26;;;;;;;3.08;1.08;;;22.40;99.90;;;;;;5015072;28;20496;-72
2022/08/08 12:56:52;;;;;;;3.50;1.30;;;22.50;99.90;;;;;;5015912;28;20099;-72
2022/08/08 12:59:21;;;;;;;5.07;1.30;;;22.00;99.90;;;;;;5034164;28;20037;-72
2022/08/08 13:02:05;;;;;;;3.63;1.50;;;22.80;99.90;;;;;;5000009;28;20103;-72
2022/08/08 13:04:34;;;;;;;3.30;1.02;;;22.00;99.90;;;;;;5013706;28;20030;-72
2022/08/08 13:07:07;;;;;;;2.97;0.93;;;21.60;99.90;;;;;;5011056;28;20080;-72
2022/08/08 13:09:41;;;;;;;2.90;0.95;;;21.80;99.90;;;;;;5016454;28;20390;-72
2022/08/08 13:12:10;;;;;;;2.20;0.90;;;22.00;99.90;;;;;;5033764;28;20450;-72
2022/08/08 13:14:46;;;;;;;3.47;1.05;;;21.70;99.90;;;;;;5015726;28;20045;-72
2022/08/08 13:17:13;;;;;;;2.08;1.48;;;21.50;99.90;;;;;;5016058;28;20068;-72
2022/08/08 13:19:40;;;;;;;3.28;1.30;;;21.50;99.90;;;;;;4999179;28;20042;-72
2022/08/08 13:22:07;;;;;;;2.67;1.02;;;22.20;99.90;;;;;;5033162;28;20038;-72
2022/08/08 13:24:39;;;;;;;3.50;1.08;;;21.90;99.90;;;;;;5033301;28;20037;-72
2022/08/08 13:27:13;;;;;;;5.00;1.43;;;21.70;99.90;;;;;;5032848;28;20073;-72
2022/08/08 13:29:54;;;;;;;4.72;1.60;;;21.80;99.90;;;;;;5018708;28;20571;-72